Time;durP1;ratioP1;P1;durP2;ratioP2;P2;SDS_P1;SDS_P2;PMS_P1;PMS_P2;Temp;Humidity;BMP_temperature;BMP_pressure;BME280_temperature;BME280_humidity;BME280_pressure;Samples;Min_cycle;Max_cycle;Signal;HPM_P1;HPM_P2
2022/10/25 00:00:59;;;;;;;0.93;0.88;;;11.70;99.90;;;;;;5074538;28;20577;-80
2022/10/25 00:03:24;;;;;;;0.30;0.30;;;11.60;99.90;;;;;;5085264;28;20040;-80
2022/10/25 00:05:50;;;;;;;0.60;0.60;;;11.60;99.90;;;;;;5083698;28;20047;-80
2022/10/25 00:08:16;;;;;;;0.30;0.30;;;11.50;99.90;;;;;;5071494;28;20042;-82
2022/10/25 00:10:41;;;;;;;3.28;3.08;;;11.40;99.90;;;;;;5077895;28;20044;-81
2022/10/25 00:13:07;;;;;;;0.60;0.43;;;11.40;99.90;;;;;;5088353;28;20032;-81
2022/10/25 00:15:33;;;;;;;0.30;0.30;;;11.50;99.90;;;;;;5089349;28;20046;-81
2022/10/25 00:17:58;;;;;;;0.45;0.45;;;11.50;99.90;;;;;;5090568;28;20123;-80
2022/10/25 00:20:24;;;;;;;0.95;0.95;;;11.40;99.90;;;;;;5074936;28;20040;-82
2022/10/25 00:22:50;;;;;;;0.43;0.43;;;11.40;99.90;;;;;;5089154;28;20682;-79
2022/10/25 00:25:16;;;;;;;0.57;0.57;;;11.40;99.90;;;;;;5081854;28;20093;-79
2022/10/25 00:27:41;;;;;;;1.60;1.50;;;11.40;99.90;;;;;;5074083;28;20041;-81
2022/10/25 00:30:08;;;;;;;1.05;0.95;;;11.40;99.90;;;;;;5074523;28;20044;-79
2022/10/25 00:32:34;;;;;;;0.30;0.30;;;11.40;99.90;;;;;;5081316;28;20050;-79
2022/10/25 00:34:59;;;;;;;0.30;0.30;;;11.40;99.90;;;;;;5087047;28;20162;-78
2022/10/25 00:37:26;;;;;;;0.30;0.30;;;11.40;99.90;;;;;;5066990;28;20119;-79
2022/10/25 00:39:51;;;;;;;;;;;11.40;99.90;;;;;;5076576;28;20141;-80
2022/10/25 00:42:20;;;;;;;0.30;0.30;;;11.30;99.90;;;;;;5080953;28;20392;-81
2022/10/25 00:45:01;;;;;;;0.47;0.47;;;11.30;99.90;;;;;;5086471;28;20047;-79
2022/10/25 00:47:42;;;;;;;0.98;0.98;;;11.30;99.90;;;;;;5089394;28;20032;-80
2022/10/25 00:50:10;;;;;;;0.65;0.65;;;11.30;99.90;;;;;;5080562;28;20040;-81
2022/10/25 00:52:39;;;;;;;0.60;0.60;;;11.40;99.90;;;;;;5093723;28;20389;-80
2022/10/25 00:55:07;;;;;;;1.75;1.25;;;11.50;99.90;;;;;;5064655;28;20094;-80
2022/10/25 00:57:36;;;;;;;0.40;0.40;;;11.60;99.90;;;;;;5077307;28;20418;-79
2022/10/25 01:00:05;;;;;;;0.38;0.38;;;11.70;99.90;;;;;;5082985;28;20359;-80
2022/10/25 01:02:31;;;;;;;1.00;1.00;;;11.70;99.90;;;;;;5069998;28;20496;-80
2022/10/25 01:04:57;;;;;;;0.70;0.70;;;11.70;99.90;;;;;;5074508;28;20119;-78
2022/10/25 01:07:22;;;;;;;;;;;11.80;99.90;;;;;;5063700;28;20036;-82
2022/10/25 01:09:50;;;;;;;0.38;0.38;;;11.60;99.90;;;;;;5083953;28;19916;-80
2022/10/25 01:12:15;;;;;;;0.85;0.85;;;11.80;99.90;;;;;;5078900;28;20076;-79
2022/10/25 01:14:45;;;;;;;0.88;0.88;;;11.80;99.90;;;;;;5073397;28;20083;-80
2022/10/25 01:17:45;;;;;;;1.15;1.13;;;11.70;99.90;;;;;;5086771;28;20032;-79
2022/10/25 01:20:38;;;;;;;0.85;0.85;;;11.70;99.90;;;;;;5064972;28;20367;-80
2022/10/25 01:23:32;;;;;;;0.77;0.63;;;11.80;99.90;;;;;;5089390;28;20052;-80
2022/10/25 01:26:37;;;;;;;1.30;0.73;;;11.90;99.90;;;;;;5076336;28;20028;-81
2022/10/25 01:29:48;;;;;;;0.70;0.70;;;11.90;99.90;;;;;;5087036;28;20429;-80
2022/10/25 01:32:23;;;;;;;1.40;0.80;;;12.00;99.90;;;;;;5059234;28;20055;-81
2022/10/25 01:35:12;;;;;;;1.10;1.00;;;12.10;99.90;;;;;;5083503;28;20056;-79
2022/10/25 01:37:52;;;;;;;0.52;0.52;;;12.10;99.90;;;;;;5080774;28;20113;-81
2022/10/25 01:41:11;;;;;;;1.27;1.23;;;12.20;99.90;;;;;;5083461;28;20052;-80
2022/10/25 01:43:40;;;;;;;5.78;1.30;;;12.20;99.90;;;;;;5054583;28;20401;-83
2022/10/25 01:46:26;;;;;;;0.52;0.52;;;12.30;99.90;;;;;;5053495;28;20071;-85
2022/10/25 01:48:59;;;;;;;1.30;1.20;;;12.30;99.90;;;;;;5085684;28;20059;-81
2022/10/25 01:51:27;;;;;;;0.45;0.45;;;12.40;99.90;;;;;;5064070;28;20058;-81
2022/10/25 01:53:54;;;;;;;1.55;1.45;;;12.40;99.90;;;;;;5080578;28;20498;-80
2022/10/25 01:56:25;;;;;;;;;;;12.40;99.90;;;;;;5074632;28;20044;-79
2022/10/25 01:59:28;;;;;;;1.40;1.30;;;12.30;99.90;;;;;;5084035;28;19923;-81
2022/10/25 02:02:21;;;;;;;0.70;0.52;;;12.20;99.90;;;;;;5083584;28;20490;-81
2022/10/25 02:04:47;;;;;;;0.47;0.47;;;12.20;99.90;;;;;;5093880;28;20123;-81
2022/10/25 02:07:37;;;;;;;0.47;0.47;;;12.10;99.90;;;;;;5082746;28;20495;-80
2022/10/25 02:10:11;;;;;;;0.57;0.57;;;12.10;99.90;;;;;;5088534;28;20055;-81
2022/10/25 02:12:57;;;;;;;2.60;2.40;;;12.00;99.90;;;;;;5092196;28;20055;-81
2022/10/25 02:15:51;;;;;;;0.68;0.68;;;12.00;99.90;;;;;;5093685;28;20401;-82
2022/10/25 02:18:22;;;;;;;0.90;0.60;;;12.00;99.90;;;;;;5086864;28;20082;-80
2022/10/25 02:20:50;;;;;;;0.50;0.50;;;12.10;99.90;;;;;;5091827;28;20401;-82
2022/10/25 02:23:19;;;;;;;0.30;0.30;;;12.10;99.90;;;;;;5081878;28;20051;-81
2022/10/25 02:25:46;;;;;;;0.52;0.52;;;12.10;99.90;;;;;;5073373;28;20029;-81
2022/10/25 02:28:15;;;;;;;1.13;1.00;;;12.10;99.90;;;;;;5079842;28;20048;-81
2022/10/25 02:30:43;;;;;;;0.73;0.73;;;12.20;99.90;;;;;;5064541;28;20147;-82
2022/10/25 02:33:09;;;;;;;0.75;0.65;;;12.20;99.90;;;;;;5086077;28;20077;-80
2022/10/25 02:35:35;;;;;;;;;;;12.20;99.90;;;;;;5075684;28;20493;-79
2022/10/25 02:38:01;;;;;;;0.40;0.40;;;12.20;99.90;;;;;;5083804;28;19916;-81
2022/10/25 02:40:27;;;;;;;1.38;0.75;;;12.20;99.90;;;;;;5082872;28;20127;-82
2022/10/25 02:42:53;;;;;;;0.60;0.60;;;12.30;99.90;;;;;;5086605;28;20048;-81
2022/10/25 02:45:18;;;;;;;0.70;0.70;;;12.40;99.90;;;;;;5078061;28;20067;-79
2022/10/25 02:47:44;;;;;;;0.52;0.52;;;12.40;99.90;;;;;;5071992;28;20043;-80
2022/10/25 02:50:10;;;;;;;0.40;0.40;;;12.50;99.90;;;;;;5073528;28;20048;-81
2022/10/25 02:52:36;;;;;;;0.32;0.32;;;12.50;99.90;;;;;;5080921;28;20041;-82
2022/10/25 02:55:02;;;;;;;1.63;1.52;;;12.50;99.90;;;;;;5080606;28;20047;-80
2022/10/25 02:57:35;;;;;;;0.35;0.35;;;12.50;99.90;;;;;;5088164;28;20362;-79
2022/10/25 03:00:03;;;;;;;0.75;0.65;;;12.50;99.90;;;;;;5073984;28;20048;-79
2022/10/25 03:02:28;;;;;;;0.40;0.40;;;12.60;99.90;;;;;;5085563;28;20449;-80
2022/10/25 03:04:54;;;;;;;0.30;0.30;;;12.60;99.90;;;;;;5086141;28;20133;-81
2022/10/25 03:07:20;;;;;;;0.45;0.40;;;12.60;99.90;;;;;;5073612;28;20059;-80
2022/10/25 03:09:45;;;;;;;0.65;0.65;;;12.70;99.90;;;;;;5075055;28;20432;-80
2022/10/25 03:12:11;;;;;;;1.67;1.58;;;12.70;99.90;;;;;;5081939;28;20648;-79
2022/10/25 03:14:38;;;;;;;0.40;0.40;;;12.70;99.90;;;;;;5098216;28;20540;-79
2022/10/25 03:17:05;;;;;;;0.80;0.60;;;12.70;99.90;;;;;;5083803;28;20106;-79
2022/10/25 03:19:31;;;;;;;0.45;0.45;;;12.70;99.90;;;;;;5082249;28;20044;-79
2022/10/25 03:21:56;;;;;;;0.40;0.40;;;12.70;99.90;;;;;;5084272;28;20571;-79
2022/10/25 03:24:22;;;;;;;0.60;0.60;;;12.60;99.90;;;;;;5088817;28;20412;-78
2022/10/25 03:26:48;;;;;;;0.60;0.60;;;12.50;99.90;;;;;;5074928;28;20044;-79
2022/10/25 03:29:13;;;;;;;0.30;0.30;;;12.50;99.90;;;;;;5092142;28;20097;-78
2022/10/25 03:31:39;;;;;;;0.90;0.82;;;12.40;99.90;;;;;;5093903;28;20126;-78
2022/10/25 03:34:05;;;;;;;0.30;0.30;;;12.30;99.90;;;;;;5085245;28;20119;-79
2022/10/25 03:36:31;;;;;;;0.40;0.40;;;12.30;99.90;;;;;;5089958;28;20038;-79
2022/10/25 03:38:57;;;;;;;0.30;0.30;;;12.20;99.90;;;;;;5069848;28;20044;-79
2022/10/25 03:41:23;;;;;;;1.08;1.08;;;12.20;99.90;;;;;;5074546;28;20059;-80
2022/10/25 03:43:49;;;;;;;0.43;0.43;;;12.30;99.90;;;;;;5068645;28;20040;-78
2022/10/25 03:46:14;;;;;;;0.25;0.25;;;12.30;99.90;;;;;;5074414;28;20040;-79
2022/10/25 03:48:40;;;;;;;1.83;1.17;;;12.30;99.90;;;;;;5073761;28;20051;-80
2022/10/25 03:51:06;;;;;;;0.35;0.35;;;12.20;99.90;;;;;;5078093;28;20079;-80
2022/10/25 03:53:32;;;;;;;0.30;0.30;;;12.20;99.90;;;;;;5081242;28;20068;-79
2022/10/25 03:55:58;;;;;;;0.38;0.38;;;12.20;99.90;;;;;;5087612;28;20055;-79
2022/10/25 03:58:23;;;;;;;0.40;0.40;;;12.20;99.90;;;;;;5074624;28;20052;-79
2022/10/25 04:00:49;;;;;;;0.30;0.30;;;12.20;99.90;;;;;;5091405;28;20044;-78
2022/10/25 04:03:15;;;;;;;0.47;0.47;;;12.10;99.90;;;;;;5076354;28;20040;-79
2022/10/25 04:05:40;;;;;;;0.25;0.25;;;12.20;99.90;;;;;;5076125;28;20047;-79
2022/10/25 04:08:06;;;;;;;0.43;0.43;;;12.20;99.90;;;;;;5095590;28;20085;-79
2022/10/25 04:10:32;;;;;;;0.60;0.60;;;12.20;99.90;;;;;;5097348;28;20048;-80
2022/10/25 04:12:58;;;;;;;0.60;0.60;;;12.20;99.90;;;;;;5094612;28;20079;-80
2022/10/25 04:15:24;;;;;;;0.63;0.63;;;12.20;99.90;;;;;;5072337;28;20032;-80
2022/10/25 04:17:51;;;;;;;0.30;0.30;;;12.20;99.90;;;;;;5071513;28;20161;-80
2022/10/25 04:20:17;;;;;;;0.35;0.35;;;12.20;99.90;;;;;;5090668;28;20041;-80
2022/10/25 04:22:43;;;;;;;1.85;1.75;;;12.20;99.90;;;;;;5077232;28;20056;-80
2022/10/25 04:25:09;;;;;;;0.32;0.32;;;12.20;99.90;;;;;;5070079;28;20373;-81
2022/10/25 04:27:34;;;;;;;1.10;1.08;;;12.20;99.90;;;;;;5069958;28;20089;-80
2022/10/25 04:30:00;;;;;;;0.68;0.68;;;12.10;99.90;;;;;;5083535;28;20037;-80
2022/10/25 04:32:26;;;;;;;1.15;0.63;;;12.10;99.90;;;;;;5082067;28;20484;-79
2022/10/25 04:34:52;;;;;;;0.30;0.30;;;12.10;99.90;;;;;;5078371;28;20370;-79
2022/10/25 04:37:17;;;;;;;0.93;0.93;;;12.10;99.90;;;;;;5090903;28;20504;-80
2022/10/25 04:39:43;;;;;;;0.65;0.65;;;12.10;99.90;;;;;;5095259;28;20037;-79
2022/10/25 04:42:08;;;;;;;2.65;1.17;;;12.10;99.90;;;;;;5094759;28;20178;-80
2022/10/25 04:44:34;;;;;;;1.02;1.02;;;12.00;99.90;;;;;;5095344;28;20044;-79
2022/10/25 04:47:00;;;;;;;0.38;0.38;;;12.00;99.90;;;;;;5072092;28;20044;-78
2022/10/25 04:49:25;;;;;;;0.32;0.32;;;12.00;99.90;;;;;;5077791;28;20043;-80
2022/10/25 04:51:51;;;;;;;0.77;0.77;;;12.00;99.90;;;;;;5090580;28;20101;-77
2022/10/25 04:54:17;;;;;;;0.30;0.30;;;11.90;99.90;;;;;;5092429;28;20040;-79
2022/10/25 04:56:42;;;;;;;1.00;0.55;;;12.00;99.90;;;;;;5093499;28;20043;-80
2022/10/25 04:59:08;;;;;;;0.30;0.30;;;11.90;99.90;;;;;;5090122;28;20037;-79
2022/10/25 05:01:34;;;;;;;0.52;0.43;;;11.90;99.90;;;;;;5096043;28;20046;-80
2022/10/25 05:03:59;;;;;;;0.32;0.32;;;11.80;99.90;;;;;;5087167;28;20032;-79
2022/10/25 05:06:26;;;;;;;1.90;1.80;;;11.80;99.90;;;;;;5068321;28;20054;-78
2022/10/25 05:08:53;;;;;;;0.43;0.43;;;11.70;99.90;;;;;;5086001;28;20028;-78
2022/10/25 05:11:22;;;;;;;0.52;0.52;;;11.70;99.90;;;;;;5082963;28;20044;-79
2022/10/25 05:13:48;;;;;;;0.50;0.50;;;11.70;99.90;;;;;;5091306;28;20075;-78
2022/10/25 05:16:22;;;;;;;0.30;0.30;;;11.80;99.90;;;;;;5084383;28;20048;-78
2022/10/25 05:18:54;;;;;;;0.50;0.50;;;11.80;99.90;;;;;;5079059;28;20039;-78
2022/10/25 05:21:22;;;;;;;0.90;0.90;;;11.80;99.90;;;;;;5090497;28;20099;-80
2022/10/25 05:23:47;;;;;;;0.40;0.40;;;11.80;99.90;;;;;;5093054;28;20083;-78
2022/10/25 05:26:19;;;;;;;0.60;0.60;;;11.80;99.90;;;;;;5088613;28;20091;-78
2022/10/25 05:28:47;;;;;;;0.40;0.40;;;11.70;99.90;;;;;;5087486;28;20547;-78
2022/10/25 05:31:24;;;;;;;0.35;0.35;;;11.80;99.90;;;;;;5090836;28;20048;-79
2022/10/25 05:33:58;;;;;;;0.30;0.30;;;11.80;99.90;;;;;;5091411;28;20101;-78
2022/10/25 05:36:25;;;;;;;0.77;0.77;;;11.80;99.90;;;;;;5092561;28;20485;-78
2022/10/25 05:38:51;;;;;;;1.90;0.77;;;11.80;99.90;;;;;;5087740;28;20039;-78
2022/10/25 05:41:17;;;;;;;0.50;0.50;;;11.90;99.90;;;;;;5084599;28;20055;-80
2022/10/25 05:43:44;;;;;;;1.00;1.00;;;11.90;99.90;;;;;;5090431;28;20067;-80
2022/10/25 05:46:11;;;;;;;0.70;0.70;;;11.90;99.90;;;;;;5074156;28;20076;-80
2022/10/25 05:48:38;;;;;;;2.40;1.98;;;11.90;99.90;;;;;;5092835;28;20040;-80
2022/10/25 05:51:14;;;;;;;0.60;0.60;;;12.00;99.90;;;;;;5091614;28;20493;-79
2022/10/25 05:53:49;;;;;;;0.20;0.20;;;12.10;99.90;;;;;;5090993;28;20040;-79
2022/10/25 05:56:16;;;;;;;2.67;1.63;;;12.10;99.90;;;;;;5087160;28;20096;-78
2022/10/25 05:58:41;;;;;;;1.27;1.23;;;12.10;99.90;;;;;;5096244;28;20430;-78
2022/10/25 06:01:13;;;;;;;1.02;0.77;;;12.10;99.90;;;;;;5092648;28;20036;-80
2022/10/25 06:03:38;;;;;;;0.55;0.55;;;12.20;99.90;;;;;;5089211;28;20036;-80
2022/10/25 06:06:08;;;;;;;0.70;0.70;;;12.20;99.90;;;;;;5085586;28;20040;-78
2022/10/25 06:08:34;;;;;;;0.40;0.40;;;12.20;99.90;;;;;;5093731;28;20113;-77
2022/10/25 06:11:05;;;;;;;0.47;0.47;;;12.20;99.90;;;;;;5090153;28;20384;-80
2022/10/25 06:13:31;;;;;;;0.82;0.73;;;12.20;99.90;;;;;;5091481;28;20059;-80
2022/10/25 06:15:57;;;;;;;0.55;0.55;;;12.20;99.90;;;;;;5059077;28;20043;-78
2022/10/25 06:18:23;;;;;;;0.57;0.50;;;12.10;99.90;;;;;;5087524;28;20707;-78
2022/10/25 06:20:49;;;;;;;0.45;0.45;;;12.10;99.90;;;;;;5083892;28;20040;-79
2022/10/25 06:23:15;;;;;;;0.77;0.77;;;12.10;99.90;;;;;;5091672;28;20461;-79
2022/10/25 06:25:43;;;;;;;0.30;0.30;;;12.10;99.90;;;;;;5090665;28;20044;-77
2022/10/25 06:28:09;;;;;;;0.47;0.47;;;12.00;99.90;;;;;;5083218;28;20051;-77
2022/10/25 06:30:35;;;;;;;0.40;0.40;;;12.00;99.90;;;;;;5088147;28;20481;-79
2022/10/25 06:33:00;;;;;;;1.98;1.35;;;12.00;99.90;;;;;;5077310;28;20077;-77
2022/10/25 06:35:28;;;;;;;1.20;1.05;;;12.10;99.90;;;;;;5083066;28;20032;-78
2022/10/25 06:37:58;;;;;;;0.50;0.50;;;12.10;99.90;;;;;;5090063;28;20782;-79
2022/10/25 06:40:24;;;;;;;0.73;0.73;;;12.00;99.90;;;;;;5088394;28;20052;-77
2022/10/25 06:42:56;;;;;;;0.43;0.43;;;12.00;99.90;;;;;;5078151;28;20121;-80
2022/10/25 06:45:23;;;;;;;0.60;0.60;;;12.00;99.90;;;;;;5086365;28;20036;-78
2022/10/25 06:47:49;;;;;;;0.32;0.32;;;12.00;99.90;;;;;;5090579;28;20040;-78
2022/10/25 06:50:14;;;;;;;0.50;0.50;;;12.00;99.90;;;;;;5091014;28;20047;-81
2022/10/25 06:52:41;;;;;;;0.40;0.40;;;12.00;99.90;;;;;;5082613;28;20428;-79
2022/10/25 06:55:07;;;;;;;0.50;0.50;;;12.10;99.90;;;;;;5069370;28;20488;-80
2022/10/25 06:57:33;;;;;;;4.95;0.95;;;12.00;99.90;;;;;;5083463;28;20046;-78
2022/10/25 06:59:59;;;;;;;0.40;0.40;;;12.10;99.90;;;;;;5078127;28;20048;-79
2022/10/25 07:02:26;;;;;;;0.60;0.60;;;12.10;99.90;;;;;;5067559;28;20051;-80
2022/10/25 07:04:51;;;;;;;0.98;0.90;;;12.10;99.90;;;;;;5090685;28;20052;-77
2022/10/25 07:07:17;;;;;;;0.55;0.40;;;12.10;99.90;;;;;;5083452;28;20658;-80
2022/10/25 07:09:43;;;;;;;0.60;0.60;;;12.10;99.90;;;;;;5084323;28;20085;-78
2022/10/25 07:12:08;;;;;;;0.68;0.60;;;12.10;99.90;;;;;;5069827;28;20044;-78
2022/10/25 07:14:34;;;;;;;0.47;0.40;;;12.00;99.90;;;;;;5082808;28;20044;-78
2022/10/25 07:17:00;;;;;;;0.65;0.65;;;12.00;99.90;;;;;;5070427;28;20170;-77
2022/10/25 07:19:25;;;;;;;0.30;0.30;;;12.00;99.90;;;;;;5079507;28;20393;-77
2022/10/25 07:21:51;;;;;;;2.10;0.55;;;12.00;99.90;;;;;;5077040;28;20078;-79
2022/10/25 07:24:17;;;;;;;0.50;0.50;;;12.10;99.90;;;;;;5055635;28;20499;-79
2022/10/25 07:26:42;;;;;;;0.40;0.40;;;12.10;99.90;;;;;;5077402;28;20044;-81
2022/10/25 07:29:09;;;;;;;0.45;0.45;;;12.10;99.90;;;;;;5081663;28;20036;-77
2022/10/25 07:31:39;;;;;;;0.30;0.30;;;12.20;99.90;;;;;;5084051;28;20400;-78
2022/10/25 07:34:05;;;;;;;0.30;0.30;;;12.20;99.90;;;;;;5084583;28;20035;-79
2022/10/25 07:36:31;;;;;;;;;;;12.20;99.90;;;;;;5060899;28;20048;-79
2022/10/25 07:38:58;;;;;;;0.50;0.50;;;12.20;99.90;;;;;;5083334;28;19942;-80
2022/10/25 07:41:24;;;;;;;0.40;0.40;;;12.20;99.90;;;;;;5084003;28;20113;-79
2022/10/25 07:43:50;;;;;;;0.30;0.30;;;12.30;99.90;;;;;;5079415;28;20050;-79
2022/10/25 07:46:17;;;;;;;;;;;12.20;99.90;;;;;;5062463;28;20040;-79
2022/10/25 07:48:43;;;;;;;0.47;0.47;;;12.30;99.90;;;;;;5088548;28;19920;-78
2022/10/25 07:51:14;;;;;;;1.05;0.98;;;12.30;99.90;;;;;;5091991;28;20042;-80
2022/10/25 07:53:41;;;;;;;1.00;0.50;;;12.40;99.90;;;;;;5088736;28;20032;-78
2022/10/25 07:56:17;;;;;;;0.30;0.30;;;12.40;99.90;;;;;;5077170;28;20428;-79
2022/10/25 07:58:43;;;;;;;0.30;0.30;;;12.40;99.90;;;;;;5075338;28;20040;-79
2022/10/25 08:01:10;;;;;;;0.65;0.65;;;12.50;99.90;;;;;;5074361;28;20040;-79
2022/10/25 08:03:36;;;;;;;0.82;0.82;;;12.50;99.90;;;;;;5078146;28;20450;-80
2022/10/25 08:06:02;;;;;;;;;;;12.60;99.90;;;;;;5078618;28;20036;-79
2022/10/25 08:08:29;;;;;;;0.40;0.40;;;12.70;99.90;;;;;;5082506;28;19968;-79
2022/10/25 08:10:55;;;;;;;0.73;0.73;;;12.70;99.90;;;;;;5081699;28;20096;-79
2022/10/25 08:13:21;;;;;;;0.30;0.30;;;12.70;99.90;;;;;;5083693;28;20050;-79
2022/10/25 08:15:51;;;;;;;0.47;0.47;;;12.70;99.90;;;;;;5091892;28;20040;-77
2022/10/25 08:18:17;;;;;;;0.30;0.30;;;12.80;99.90;;;;;;5090651;28;20101;-78
2022/10/25 08:20:42;;;;;;;0.65;0.65;;;12.80;99.90;;;;;;5068815;28;20490;-77
2022/10/25 08:23:08;;;;;;;0.40;0.40;;;12.90;99.90;;;;;;5078384;28;20514;-78
2022/10/25 08:25:35;;;;;;;0.30;0.30;;;12.90;99.90;;;;;;5081164;28;20097;-76
2022/10/25 08:28:01;;;;;;;0.30;0.30;;;13.00;99.90;;;;;;5077299;28;20506;-78
2022/10/25 08:30:27;;;;;;;0.52;0.40;;;13.10;99.90;;;;;;5086604;28;20127;-77
2022/10/25 08:32:52;;;;;;;0.30;0.30;;;13.20;99.90;;;;;;5083808;28;20055;-78
2022/10/25 08:35:18;;;;;;;0.20;0.20;;;13.20;99.90;;;;;;5087486;28;20036;-78
2022/10/25 08:37:44;;;;;;;4.30;2.30;;;13.30;99.90;;;;;;5089811;28;20045;-77
2022/10/25 08:40:34;;;;;;;1.20;1.10;;;13.40;99.90;;;;;;5081643;28;20546;-76
2022/10/25 08:43:10;;;;;;;0.43;0.43;;;13.50;99.90;;;;;;5085828;28;20048;-78
2022/10/25 08:45:46;;;;;;;0.57;0.57;;;13.70;99.90;;;;;;5093581;28;20393;-77
2022/10/25 08:48:14;;;;;;;;;;;13.80;99.90;;;;;;5075478;28;20043;-76
2022/10/25 08:50:46;;;;;;;1.15;1.15;;;13.90;99.90;;;;;;5110014;28;19926;-77
2022/10/25 08:53:24;;;;;;;0.85;0.85;;;13.90;99.90;;;;;;5086426;28;20071;-77
2022/10/25 08:55:50;;;;;;;0.30;0.30;;;14.10;99.90;;;;;;5094789;28;20496;-78
2022/10/25 08:58:33;;;;;;;0.50;0.50;;;14.20;99.90;;;;;;5087037;28;20116;-77
2022/10/25 09:01:05;;;;;;;3.05;1.02;;;14.10;99.90;;;;;;5085115;28;20504;-77
2022/10/25 09:03:32;;;;;;;0.45;0.45;;;14.10;99.90;;;;;;5073798;28;20052;-77
2022/10/25 09:06:25;;;;;;;0.60;0.60;;;14.10;99.90;;;;;;5093674;28;20048;-78
2022/10/25 09:09:19;;;;;;;0.40;0.40;;;14.10;99.90;;;;;;5107216;28;20051;-79
2022/10/25 09:12:22;;;;;;;0.40;0.40;;;14.10;99.90;;;;;;5085588;28;20051;-78
2022/10/25 09:15:02;;;;;;;0.40;0.40;;;14.20;99.90;;;;;;5078625;28;20397;-77
2022/10/25 09:17:42;;;;;;;0.30;0.30;;;14.20;99.90;;;;;;5091892;28;20482;-77
2022/10/25 09:20:30;;;;;;;0.20;0.20;;;14.20;99.90;;;;;;5093868;28;20449;-79
2022/10/25 09:23:28;;;;;;;0.40;0.40;;;14.30;99.90;;;;;;5089120;28;20056;-78
2022/10/25 09:26:02;;;;;;;0.85;0.85;;;14.40;99.90;;;;;;5084944;28;20049;-77
2022/10/25 09:29:07;;;;;;;1.08;1.00;;;14.40;99.90;;;;;;5072858;28;20165;-79
2022/10/25 09:31:39;;;;;;;0.70;0.70;;;14.50;99.90;;;;;;5094698;28;20079;-77
2022/10/25 09:34:09;;;;;;;1.85;1.25;;;14.50;99.90;;;;;;5082243;28;20040;-77
2022/10/25 09:36:44;;;;;;;0.30;0.30;;;14.50;99.90;;;;;;5068608;28;20105;-77
2022/10/25 09:39:34;;;;;;;1.05;1.05;;;14.40;99.90;;;;;;5087612;28;20040;-78
2022/10/25 09:42:02;;;;;;;0.75;0.75;;;14.30;99.90;;;;;;5086384;28;20397;-79
2022/10/25 09:44:36;;;;;;;0.32;0.32;;;14.30;99.90;;;;;;5084888;28;20089;-78
2022/10/25 09:47:36;;;;;;;0.30;0.30;;;14.30;99.90;;;;;;5091946;28;20040;-77
2022/10/25 09:50:17;;;;;;;0.50;0.50;;;14.30;99.90;;;;;;5093485;28;20062;-77
2022/10/25 09:53:11;;;;;;;0.38;0.38;;;14.30;99.90;;;;;;5092804;28;20050;-77
2022/10/25 09:55:59;;;;;;;0.30;0.30;;;14.40;99.90;;;;;;5084186;28;20148;-78
2022/10/25 09:58:27;;;;;;;0.60;0.60;;;14.40;99.90;;;;;;5074461;28;20050;-80
2022/10/25 10:00:56;;;;;;;1.92;0.80;;;14.50;99.90;;;;;;5071579;28;20048;-78
2022/10/25 10:03:30;;;;;;;0.50;0.40;;;14.60;99.90;;;;;;5090292;28;20040;-78
2022/10/25 10:06:00;;;;;;;0.40;0.40;;;14.60;99.90;;;;;;5083458;28;20479;-78
2022/10/25 10:08:27;;;;;;;1.95;0.73;;;14.60;99.90;;;;;;5086233;28;20041;-78
2022/10/25 10:10:55;;;;;;;0.45;0.45;;;14.60;99.90;;;;;;5092117;28;20040;-78
2022/10/25 10:13:54;;;;;;;1.35;1.25;;;14.70;99.90;;;;;;5066635;28;20040;-76
2022/10/25 10:16:34;;;;;;;0.52;0.52;;;14.70;99.90;;;;;;5083464;28;20365;-77
2022/10/25 10:19:20;;;;;;;0.40;0.40;;;14.70;99.90;;;;;;5050313;28;20051;-78
2022/10/25 10:21:49;;;;;;;0.40;0.40;;;14.70;99.90;;;;;;5083404;28;20052;-78
2022/10/25 10:24:38;;;;;;;0.30;0.30;;;14.70;99.90;;;;;;5080265;28;20068;-77
2022/10/25 10:27:20;;;;;;;0.30;0.30;;;14.70;99.90;;;;;;5084483;28;20430;-79
2022/10/25 10:29:52;;;;;;;0.60;0.60;;;14.60;99.90;;;;;;5066693;28;20485;-79
2022/10/25 10:32:29;;;;;;;0.38;0.38;;;14.60;99.90;;;;;;5088530;28;20078;-79
2022/10/25 10:34:57;;;;;;;0.30;0.30;;;14.60;99.90;;;;;;5087789;28;20039;-81
2022/10/25 10:37:24;;;;;;;0.35;0.35;;;14.70;99.90;;;;;;5071648;28;20040;-78
2022/10/25 10:40:07;;;;;;;0.22;0.22;;;14.80;99.90;;;;;;5082517;28;20076;-79
2022/10/25 10:42:34;;;;;;;0.25;0.25;;;15.00;99.90;;;;;;5088569;28;20028;-78
2022/10/25 10:45:12;;;;;;;0.38;0.38;;;15.20;99.90;;;;;;5090422;28;20085;-79
2022/10/25 10:47:55;;;;;;;3.83;2.05;;;15.20;99.90;;;;;;5064067;28;20040;-77
2022/10/25 10:50:21;;;;;;;0.30;0.30;;;15.10;99.90;;;;;;5089382;28;20416;-78
2022/10/25 10:53:13;;;;;;;0.57;0.57;;;15.10;99.90;;;;;;5090910;28;20051;-78
2022/10/25 10:55:53;;;;;;;0.30;0.30;;;15.10;99.90;;;;;;5087136;28;20040;-78
2022/10/25 10:58:37;;;;;;;0.30;0.30;;;15.20;99.90;;;;;;5079773;28;20044;-77
2022/10/25 11:01:12;;;;;;;0.30;0.30;;;15.30;99.90;;;;;;5082663;28;20044;-78
2022/10/25 11:03:40;;;;;;;0.40;0.40;;;15.30;99.90;;;;;;5079671;28;20047;-77
2022/10/25 11:06:12;;;;;;;0.50;0.50;;;15.40;99.90;;;;;;5086958;28;20056;-81
2022/10/25 11:08:39;;;;;;;0.30;0.30;;;15.50;99.90;;;;;;5078777;28;20044;-79
2022/10/25 11:11:18;;;;;;;0.55;0.55;;;15.60;99.90;;;;;;5090125;28;20052;-78
2022/10/25 11:13:52;;;;;;;0.30;0.30;;;15.50;99.90;;;;;;5090914;28;20485;-79
2022/10/25 11:16:33;;;;;;;0.52;0.52;;;15.40;99.90;;;;;;5065117;28;20123;-79
2022/10/25 11:19:17;;;;;;;1.08;1.00;;;15.30;99.90;;;;;;5085090;28;20070;-78
2022/10/25 11:22:22;;;;;;;0.13;0.13;;;15.40;99.90;;;;;;5089516;28;20051;-77
2022/10/25 11:25:12;;;;;;;0.38;0.38;;;15.50;99.90;;;;;;5051636;28;20053;-78
2022/10/25 11:28:05;;;;;;;0.20;0.20;;;15.60;99.90;;;;;;5091833;28;20040;-79
2022/10/25 11:30:54;;;;;;;0.45;0.45;;;15.60;99.90;;;;;;5067868;28;20064;-77
2022/10/25 11:33:44;;;;;;;0.25;0.25;;;15.60;99.90;;;;;;5078515;28;20070;-78
2022/10/25 11:36:35;;;;;;;0.30;0.30;;;15.60;99.90;;;;;;5086896;28;20043;-78
2022/10/25 11:39:19;;;;;;;0.63;0.63;;;15.60;99.90;;;;;;5087796;28;22340;-79
2022/10/25 11:41:56;;;;;;;0.28;0.28;;;15.70;99.90;;;;;;5087169;28;20047;-78
2022/10/25 11:44:37;;;;;;;0.30;0.30;;;15.80;99.90;;;;;;5085874;28;20048;-79
2022/10/25 11:47:32;;;;;;;0.28;0.28;;;15.80;99.90;;;;;;5078150;28;20051;-78
2022/10/25 11:50:08;;;;;;;0.52;0.52;;;15.80;99.90;;;;;;5082361;28;20047;-78
2022/10/25 11:52:41;;;;;;;0.30;0.30;;;15.80;99.90;;;;;;5084465;28;20040;-78
2022/10/25 11:55:16;;;;;;;0.22;0.22;;;15.80;99.90;;;;;;5090436;28;20058;-79
2022/10/25 11:57:47;;;;;;;0.20;0.20;;;15.80;99.90;;;;;;5081764;28;20048;-78
2022/10/25 12:00:22;;;;;;;0.90;0.90;;;15.90;99.90;;;;;;5080850;28;20540;-78
2022/10/25 12:03:06;;;;;;;0.20;0.20;;;16.00;99.90;;;;;;5079441;28;20164;-78
2022/10/25 12:06:03;;;;;;;0.55;0.55;;;16.20;99.90;;;;;;5088846;28;20089;-79
2022/10/25 12:08:58;;;;;;;0.30;0.30;;;16.40;99.90;;;;;;5082152;28;20904;-79
2022/10/25 12:11:28;;;;;;;0.30;0.30;;;16.50;99.90;;;;;;5078722;28;20063;-78
2022/10/25 12:13:59;;;;;;;0.40;0.40;;;16.50;99.90;;;;;;5066624;28;20044;-77
2022/10/25 12:16:27;;;;;;;0.20;0.20;;;16.50;99.90;;;;;;5085370;28;20035;-77
2022/10/25 12:19:14;;;;;;;0.47;0.47;;;16.40;99.90;;;;;;5086515;28;20541;-77
2022/10/25 12:22:03;;;;;;;0.30;0.30;;;16.30;99.90;;;;;;5067485;28;20109;-78
2022/10/25 12:24:42;;;;;;;0.30;0.30;;;16.30;99.90;;;;;;5085760;28;20040;-76
2022/10/25 12:27:10;;;;;;;0.73;0.73;;;16.40;99.90;;;;;;5087343;28;20477;-77
2022/10/25 12:29:48;;;;;;;0.40;0.40;;;16.40;99.90;;;;;;5089433;28;20040;-76
2022/10/25 12:32:25;;;;;;;0.40;0.40;;;16.50;99.90;;;;;;5083064;28;20080;-76
2022/10/25 12:34:54;;;;;;;0.98;0.98;;;16.60;99.90;;;;;;5091668;28;20039;-76
2022/10/25 12:38:04;;;;;;;0.40;0.40;;;16.60;99.90;;;;;;5085550;28;20131;-78
2022/10/25 12:40:35;;;;;;;0.60;0.60;;;16.60;99.90;;;;;;5081175;28;20067;-75
2022/10/25 12:43:12;;;;;;;0.28;0.28;;;16.60;99.90;;;;;;5081342;27;20036;-76
2022/10/25 12:46:10;;;;;;;0.20;0.20;;;16.70;99.90;;;;;;5086407;28;20362;-77
2022/10/25 12:48:50;;;;;;;0.40;0.40;;;16.70;99.90;;;;;;5094868;28;20043;-77
2022/10/25 12:52:01;;;;;;;0.47;0.47;;;16.70;99.90;;;;;;5088042;28;20071;-78
2022/10/25 12:54:45;;;;;;;0.20;0.20;;;16.70;99.90;;;;;;5087897;28;20318;-81
2022/10/25 12:57:17;;;;;;;0.85;0.85;;;16.90;99.90;;;;;;5087279;28;20044;-78
2022/10/25 12:59:48;;;;;;;0.55;0.55;;;17.10;99.90;;;;;;5081066;28;20205;-79
2022/10/25 13:02:53;;;;;;;0.35;0.32;;;17.10;99.90;;;;;;5086486;28;20091;-77
2022/10/25 13:05:31;;;;;;;0.20;0.15;;;17.00;99.90;;;;;;5090485;28;20036;-77
2022/10/25 13:08:00;;;;;;;0.45;0.45;;;16.80;99.90;;;;;;5081908;28;20058;-77
2022/10/25 13:10:26;;;;;;;0.38;0.38;;;16.70;99.90;;;;;;5082449;28;20036;-76
2022/10/25 13:13:22;;;;;;;0.75;0.75;;;16.50;99.90;;;;;;5088540;28;20485;-77
2022/10/25 13:15:50;;;;;;;0.85;0.85;;;16.60;99.90;;;;;;5084484;28;20787;-78